createdAt,value
2023-05-14T00:00:00.345Z,50.6
2023-05-14T00:05:00.405Z,50.5
2023-05-14T00:10:00.359Z,50.0
2023-05-14T00:15:00.405Z,51.1
2023-05-14T00:20:00.391Z,50.6
2023-05-14T00:25:00.395Z,51.9
2023-05-14T00:30:00.343Z,51.7
2023-05-14T00:35:00.391Z,52.2
2023-05-14T00:40:00.389Z,51.3
2023-05-14T00:45:00.336Z,54.9
2023-05-14T00:50:00.375Z,54.8
2023-05-14T00:55:00.392Z,54.8
2023-05-14T01:00:00.337Z,55.2
2023-05-14T01:05:00.402Z,53.3
2023-05-14T01:10:00.389Z,54.4
2023-05-14T01:15:00.369Z,54.2
2023-05-14T01:20:00.371Z,54.4
2023-05-14T01:25:00.393Z,54.0
2023-05-14T01:30:00.380Z,52.8
2023-05-14T01:35:00.408Z,52.7
2023-05-14T01:40:00.360Z,51.9
2023-05-14T01:45:00.381Z,51.6
2023-05-14T01:50:00.367Z,50.7
2023-05-14T01:55:00.340Z,52.2
2023-05-14T02:00:00.421Z,51.3
2023-05-14T02:05:00.407Z,50.8
2023-05-14T02:10:00.380Z,51.2
2023-05-14T02:15:00.324Z,51.8
2023-05-14T02:20:00.387Z,51.3
2023-05-14T02:25:00.396Z,51.6
2023-05-14T02:30:00.334Z,52.2
2023-05-14T02:35:00.392Z,53.4
2023-05-14T02:40:00.389Z,52.5
2023-05-14T02:45:00.386Z,52.1
2023-05-14T02:50:00.372Z,51.9
2023-05-14T02:55:00.375Z,52.7
2023-05-14T03:00:00.388Z,52.8
2023-05-14T03:05:00.349Z,54.0
2023-05-14T03:10:00.433Z,53.7
2023-05-14T03:15:00.394Z,55.0
2023-05-14T03:20:00.334Z,53.8
2023-05-14T03:25:00.392Z,56.0
2023-05-14T03:30:00.373Z,55.6
2023-05-14T03:35:00.383Z,55.9
2023-05-14T03:40:00.353Z,57.7
2023-05-14T03:45:00.405Z,56.0
2023-05-14T03:50:00.397Z,55.2
2023-05-14T03:55:00.382Z,55.1
2023-05-14T04:00:00.345Z,54.4
2023-05-14T04:05:00.418Z,54.4
2023-05-14T04:10:02.576Z,55.1
2023-05-14T04:15:00.338Z,55.3
2023-05-14T04:20:00.389Z,54.9
2023-05-14T04:25:00.394Z,54.7
2023-05-14T04:30:00.435Z,54.5
2023-05-14T04:35:00.333Z,54.6
2023-05-14T04:40:00.412Z,55.4
2023-05-14T04:45:00.358Z,56.1
2023-05-14T04:50:00.427Z,56.1
2023-05-14T04:55:00.387Z,55.4
2023-05-14T05:00:00.476Z,55.5
2023-05-14T05:05:00.539Z,56.1
2023-05-14T05:10:00.381Z,56.3
2023-05-14T05:15:00.398Z,56.2
2023-05-14T05:20:00.456Z,55.9
2023-05-14T05:25:00.363Z,56.1
2023-05-14T05:30:00.409Z,57.2
2023-05-14T05:35:00.363Z,56.6
2023-05-14T05:40:00.417Z,55.6
2023-05-14T05:45:00.348Z,56.1
2023-05-14T05:50:00.436Z,56.2
2023-05-14T05:55:00.392Z,55.2
2023-05-14T06:00:00.377Z,55.6
2023-05-14T06:05:00.385Z,55.4
2023-05-14T06:10:00.387Z,56.3
2023-05-14T06:15:00.419Z,55.4
2023-05-14T06:20:00.415Z,56.1
2023-05-14T06:25:00.391Z,54.5
2023-05-14T06:30:00.405Z,54.4
2023-05-14T06:35:00.387Z,55.1
2023-05-14T06:40:00.427Z,54.4
2023-05-14T06:45:00.370Z,54.6
2023-05-14T06:50:00.396Z,54.8
2023-05-14T06:55:00.391Z,53.8
2023-05-14T07:00:02.777Z,53.3
2023-05-14T07:05:00.405Z,53.7
2023-05-14T07:10:00.347Z,53.7
2023-05-14T07:15:00.378Z,52.4
2023-05-14T07:20:00.392Z,53.1
2023-05-14T07:25:00.420Z,51.6
2023-05-14T07:30:00.361Z,51.7
2023-05-14T07:35:00.403Z,50.4
2023-05-14T07:40:00.395Z,49.4
2023-05-14T07:45:00.342Z,50.1
2023-05-14T07:50:00.427Z,47.7
2023-05-14T07:55:00.395Z,47.7
2023-05-14T08:00:00.435Z,47.6
2023-05-14T08:05:00.328Z,46.6
2023-05-14T08:10:00.392Z,46.0
2023-05-14T08:15:00.403Z,46.2
2023-05-14T08:20:00.453Z,46.7
2023-05-14T08:25:00.350Z,43.5
2023-05-14T08:30:00.455Z,42.7
2023-05-14T08:35:00.409Z,42.9
2023-05-14T08:40:00.340Z,42.4
2023-05-14T08:45:00.385Z,42.2
2023-05-14T08:50:00.498Z,41.9
2023-05-14T08:55:00.347Z,40.9
2023-05-14T09:00:00.478Z,40.9
2023-05-14T09:05:00.405Z,39.8
2023-05-14T09:10:00.408Z,39.5
2023-05-14T09:15:00.332Z,36.9
2023-05-14T09:20:00.441Z,35.9
2023-05-14T09:25:00.367Z,37.0
2023-05-14T09:30:00.363Z,36.6
2023-05-14T09:35:00.386Z,35.0
2023-05-14T09:40:00.345Z,35.1
2023-05-14T09:45:00.354Z,33.9
2023-05-14T09:50:00.479Z,33.2
2023-05-14T09:55:00.373Z,32.9
2023-05-14T10:00:00.410Z,33.6
2023-05-14T10:05:00.390Z,32.4
2023-05-14T10:10:00.381Z,32.3
2023-05-14T10:15:00.381Z,32.7
2023-05-14T10:20:00.457Z,31.8
2023-05-14T10:25:00.348Z,32.5
2023-05-14T10:30:00.473Z,31.8
2023-05-14T10:35:00.331Z,31.6
2023-05-14T10:40:00.382Z,31.2
2023-05-14T10:45:00.364Z,30.8
2023-05-14T10:50:00.417Z,30.7
2023-05-14T10:55:03.195Z,30.7
2023-05-14T11:00:00.427Z,30.5
2023-05-14T11:05:00.392Z,31.3
2023-05-14T11:10:00.401Z,31.4
2023-05-14T11:15:00.340Z,32.2
2023-05-14T11:20:00.432Z,32.7
2023-05-14T11:25:00.339Z,31.4
2023-05-14T11:30:00.418Z,31.0
2023-05-14T11:35:00.381Z,31.2
2023-05-14T11:40:00.408Z,30.2
2023-05-14T11:45:00.354Z,30.7
2023-05-14T11:50:00.462Z,31.6
2023-05-14T11:55:00.364Z,30.9
2023-05-14T12:00:00.359Z,30.6
2023-05-14T12:05:00.395Z,30.5
2023-05-14T12:10:00.391Z,30.7
2023-05-14T12:15:00.321Z,30.6
2023-05-14T12:20:00.456Z,30.5
2023-05-14T12:25:00.374Z,30.5
2023-05-14T12:30:13.084Z,30.1
2023-05-14T12:35:00.338Z,29.7
2023-05-14T12:40:00.418Z,29.7
2023-05-14T12:45:01.331Z,29.9
2023-05-14T12:50:00.376Z,29.7
2023-05-14T12:55:00.413Z,29.6
2023-05-14T13:00:00.422Z,30.8
2023-05-14T13:05:00.394Z,30.6
2023-05-14T13:10:00.353Z,30.2
2023-05-14T13:15:00.383Z,29.9
2023-05-14T13:20:00.349Z,29.0
2023-05-14T13:25:00.372Z,29.4
2023-05-14T13:30:00.403Z,29.0
2023-05-14T13:35:00.381Z,29.2
2023-05-14T13:40:00.348Z,28.2
2023-05-14T13:45:00.389Z,28.9
2023-05-14T13:50:01.655Z,30.0
2023-05-14T13:55:00.387Z,29.2
2023-05-14T14:00:00.363Z,29.3
2023-05-14T14:05:00.420Z,29.4
2023-05-14T14:10:00.379Z,28.7
2023-05-14T14:15:00.379Z,28.5
2023-05-14T14:20:00.344Z,28.6
2023-05-14T14:25:00.381Z,28.6
2023-05-14T14:30:00.440Z,28.3
2023-05-14T14:35:00.405Z,28.3
2023-05-14T14:40:00.364Z,28.4
2023-05-14T14:45:00.394Z,29.0
2023-05-14T14:50:00.363Z,28.9
2023-05-14T14:55:00.388Z,28.6
2023-05-14T15:00:02.313Z,29.4
2023-05-14T15:05:00.417Z,29.3
2023-05-14T15:10:00.380Z,29.0
2023-05-14T15:15:00.380Z,28.9
2023-05-14T15:20:00.431Z,28.6
2023-05-14T15:25:00.348Z,28.5
2023-05-14T15:30:00.425Z,28.9
2023-05-14T15:35:00.398Z,29.6
2023-05-14T15:40:00.396Z,30.0
2023-05-14T15:45:00.339Z,29.9
2023-05-14T15:50:00.480Z,29.8
2023-05-14T15:55:00.406Z,29.8
2023-05-14T16:00:00.386Z,29.6
2023-05-14T16:05:00.334Z,29.6
2023-05-14T16:10:00.400Z,29.3
2023-05-14T16:15:00.337Z,29.5
2023-05-14T16:20:00.465Z,29.4
2023-05-14T16:25:03.189Z,28.4
2023-05-14T16:30:00.440Z,29.0
2023-05-14T16:35:00.340Z,29.9
2023-05-14T16:40:00.386Z,29.7
2023-05-14T16:45:00.406Z,30.0
2023-05-14T16:50:00.431Z,30.7
2023-05-14T16:55:00.532Z,31.1
2023-05-14T17:00:00.612Z,31.7
2023-05-14T17:05:00.494Z,32.8
2023-05-14T17:10:00.497Z,32.6
2023-05-14T17:15:01.893Z,31.8
2023-05-14T17:20:00.977Z,32.4
2023-05-14T17:25:00.330Z,33.0
2023-05-14T17:30:00.407Z,33.9
2023-05-14T17:35:00.387Z,34.2
2023-05-14T17:40:00.362Z,34.1
2023-05-14T17:45:00.331Z,33.7
2023-05-14T17:50:00.440Z,34.1
2023-05-14T17:55:00.352Z,34.0
2023-05-14T18:00:00.351Z,34.5
2023-05-14T18:05:00.567Z,34.8
2023-05-14T18:10:00.343Z,34.6
2023-05-14T18:15:00.340Z,34.3
2023-05-14T18:20:00.469Z,34.5
2023-05-14T18:25:00.346Z,34.3
2023-05-14T18:30:00.468Z,34.2
2023-05-14T18:35:00.348Z,34.8
2023-05-14T18:40:00.406Z,34.7
2023-05-14T18:45:00.407Z,34.9
2023-05-14T18:50:00.457Z,35.4
2023-05-14T18:55:00.338Z,35.0
2023-05-14T19:00:00.437Z,36.3
2023-05-14T19:05:00.402Z,36.9
2023-05-14T19:10:00.349Z,37.9
2023-05-14T19:15:00.412Z,37.0
2023-05-14T19:20:00.361Z,36.8
2023-05-14T19:25:00.373Z,36.7
2023-05-14T19:30:00.420Z,37.7
2023-05-14T19:35:00.357Z,38.3
2023-05-14T19:40:00.392Z,38.0
2023-05-14T19:45:00.374Z,38.7
2023-05-14T19:50:00.398Z,38.5
2023-05-14T19:55:00.405Z,39.6
2023-05-14T20:00:00.337Z,39.2
2023-05-14T20:05:00.430Z,40.0
2023-05-14T20:10:00.342Z,40.4
2023-05-14T20:15:00.336Z,41.2
2023-05-14T20:20:00.604Z,40.7
2023-05-14T20:25:00.428Z,41.1
2023-05-14T20:30:00.376Z,42.3
2023-05-14T20:35:00.378Z,41.5
2023-05-14T20:40:00.434Z,41.2
2023-05-14T20:45:00.347Z,41.5
2023-05-14T20:50:00.385Z,41.3
2023-05-14T20:55:02.035Z,41.0
2023-05-14T21:00:00.394Z,42.3
2023-05-14T21:05:00.379Z,42.8
2023-05-14T21:10:00.577Z,43.4
2023-05-14T21:15:00.393Z,42.4
2023-05-14T21:20:00.355Z,43.7
2023-05-14T21:25:00.397Z,44.3
2023-05-14T21:30:00.365Z,43.3
2023-05-14T21:35:00.391Z,43.1
2023-05-14T21:40:00.332Z,42.8
2023-05-14T21:45:00.381Z,42.2
2023-05-14T21:50:00.372Z,42.2
2023-05-14T21:55:00.382Z,42.6
2023-05-14T22:00:00.333Z,42.8
2023-05-14T22:05:00.356Z,43.3
2023-05-14T22:10:00.428Z,43.9
2023-05-14T22:15:00.368Z,44.1
2023-05-14T22:20:00.360Z,44.5
2023-05-14T22:25:00.409Z,44.6
2023-05-14T22:30:00.342Z,45.2
2023-05-14T22:35:00.357Z,45.6
2023-05-14T22:40:00.404Z,45.7
2023-05-14T22:45:00.340Z,45.7
2023-05-14T22:50:00.336Z,46.1
2023-05-14T22:55:00.410Z,46.6
2023-05-14T23:00:00.378Z,47.0
2023-05-14T23:05:00.342Z,47.2
2023-05-14T23:10:00.388Z,48.2
2023-05-14T23:15:00.381Z,48.3
2023-05-14T23:20:00.343Z,48.6
2023-05-14T23:25:00.407Z,48.8
2023-05-14T23:30:00.389Z,48.8
2023-05-14T23:35:00.420Z,49.1
2023-05-14T23:40:00.348Z,49.6
2023-05-14T23:45:00.365Z,50.2
2023-05-14T23:50:00.377Z,50.3
2023-05-14T23:55:00.336Z,50.7
